createdAt,value
2023-05-24T00:00:33.808Z,19.85
2023-05-24T00:03:39.514Z,19.79
2023-05-24T00:06:42.695Z,19.74
2023-05-24T00:09:45.103Z,19.76
2023-05-24T00:12:47.502Z,19.76
2023-05-24T00:15:49.890Z,19.69
2023-05-24T00:18:52.402Z,19.60
2023-05-24T00:21:55.576Z,19.47
2023-05-24T00:24:58.083Z,19.43
2023-05-24T00:28:00.626Z,19.31
2023-05-24T00:31:03.085Z,19.31
2023-05-24T00:34:05.615Z,19.20
2023-05-24T00:37:08.319Z,19.31
2023-05-24T00:40:11.627Z,19.30
2023-05-24T00:43:14.131Z,19.23
2023-05-24T00:46:16.974Z,19.35
2023-05-24T00:49:19.567Z,19.28
2023-05-24T00:52:21.937Z,19.20
2023-05-24T00:55:24.720Z,19.21
2023-05-24T00:58:31.105Z,19.27
2023-05-24T01:01:33.541Z,19.26
2023-05-24T01:04:37.988Z,19.18
2023-05-24T01:07:55.640Z,19.10
2023-05-24T01:11:10.778Z,18.97
2023-05-24T01:14:34.425Z,18.92
2023-05-24T01:17:54.143Z,18.82
2023-05-24T01:21:09.983Z,18.79
2023-05-24T01:24:33.919Z,18.73
2023-05-24T01:27:36.646Z,18.79
2023-05-24T01:30:40.560Z,18.62
2023-05-24T01:33:43.481Z,18.61
2023-05-24T01:36:45.936Z,18.67
2023-05-24T01:39:48.435Z,18.72
2023-05-24T01:43:18.502Z,18.67
2023-05-24T01:46:39.126Z,18.67
2023-05-24T01:49:46.036Z,18.77
2023-05-24T01:52:48.414Z,18.82
2023-05-24T01:55:51.708Z,18.63
2023-05-24T01:58:54.202Z,18.54
2023-05-24T02:01:56.837Z,18.48
2023-05-24T02:04:59.216Z,18.47
2023-05-24T02:08:02.411Z,18.30
2023-05-24T02:11:04.836Z,18.34
2023-05-24T02:14:07.257Z,18.55
2023-05-24T02:17:09.880Z,18.54
2023-05-24T02:20:13.585Z,18.52
2023-05-24T02:23:16.096Z,18.58
2023-05-24T02:26:21.288Z,18.64
2023-05-24T02:29:23.734Z,18.71
2023-05-24T02:32:26.259Z,18.86
2023-05-24T02:35:28.681Z,18.81
2023-05-24T02:38:32.110Z,18.91
2023-05-24T02:41:34.671Z,18.86
2023-05-24T02:44:37.118Z,18.89
2023-05-24T02:47:39.583Z,18.90
2023-05-24T02:50:42.176Z,18.84
2023-05-24T02:53:45.460Z,18.98
2023-05-24T02:56:48.617Z,19.03
2023-05-24T02:59:53.091Z,19.08
2023-05-24T03:03:00.945Z,18.98
2023-05-24T03:06:03.562Z,18.97
2023-05-24T03:09:05.930Z,18.98
2023-05-24T03:12:08.478Z,18.99
2023-05-24T03:15:11.600Z,18.92
2023-05-24T03:18:13.998Z,18.82
2023-05-24T03:21:18.232Z,18.71
2023-05-24T03:24:20.909Z,18.75
2023-05-24T03:27:24.616Z,18.77
2023-05-24T03:30:27.016Z,18.79
2023-05-24T03:33:32.249Z,18.75
2023-05-24T03:36:34.661Z,18.81
2023-05-24T03:39:37.060Z,18.92
2023-05-24T03:43:05.494Z,18.90
2023-05-24T03:46:22.425Z,18.92
2023-05-24T03:49:24.821Z,18.90
2023-05-24T03:52:28.097Z,19.04
2023-05-24T03:55:30.595Z,18.78
2023-05-24T03:58:33.289Z,18.82
2023-05-24T04:01:36.896Z,18.97
2023-05-24T04:04:39.561Z,18.98
2023-05-24T04:07:43.856Z,18.95
2023-05-24T04:10:47.544Z,19.07
2023-05-24T04:13:51.359Z,19.16
2023-05-24T04:16:53.965Z,19.30
2023-05-24T04:19:56.489Z,19.37
2023-05-24T04:22:59.150Z,19.37
2023-05-24T04:26:01.835Z,19.43
2023-05-24T04:29:05.473Z,19.36
2023-05-24T04:32:10.217Z,19.37
2023-05-24T04:35:12.679Z,19.43
2023-05-24T04:38:15.126Z,19.33
2023-05-24T04:41:17.545Z,19.38
2023-05-24T04:44:19.921Z,19.34
2023-05-24T04:47:22.366Z,19.52
2023-05-24T04:50:24.821Z,19.41
2023-05-24T04:53:27.301Z,19.32
2023-05-24T04:56:29.680Z,19.39
2023-05-24T04:59:32.033Z,19.41
2023-05-24T05:02:34.671Z,19.24
2023-05-24T05:05:37.134Z,19.46
2023-05-24T05:08:39.490Z,19.49
2023-05-24T05:11:42.009Z,19.42
2023-05-24T05:14:44.368Z,19.48
2023-05-24T05:17:46.966Z,19.52
2023-05-24T05:20:49.762Z,19.59
2023-05-24T05:23:52.210Z,19.58
2023-05-24T05:26:54.632Z,19.61
2023-05-24T05:29:57.155Z,19.58
2023-05-24T05:32:59.684Z,19.67
2023-05-24T05:36:02.183Z,19.72
2023-05-24T05:39:05.137Z,19.68
2023-05-24T05:42:07.609Z,19.75
2023-05-24T05:45:10.595Z,19.49
2023-05-24T05:48:13.027Z,19.53
2023-05-24T05:51:15.448Z,19.64
2023-05-24T05:54:18.538Z,19.54
2023-05-24T05:57:24.404Z,19.43
2023-05-24T06:00:26.922Z,19.70
2023-05-24T06:03:29.594Z,19.62
2023-05-24T06:06:33.291Z,19.74
2023-05-24T06:09:35.669Z,19.75
2023-05-24T06:12:40.517Z,19.81
2023-05-24T06:15:43.040Z,19.87
2023-05-24T06:18:57.121Z,19.90
2023-05-24T06:22:04.456Z,19.96
2023-05-24T06:25:07.075Z,19.93
2023-05-24T06:28:09.942Z,19.87
2023-05-24T06:31:12.356Z,20.01
2023-05-24T06:34:19.069Z,20.13
2023-05-24T06:37:25.389Z,20.14
2023-05-24T06:40:30.531Z,20.24
2023-05-24T06:43:33.514Z,20.32
2023-05-24T06:46:36.138Z,20.31
2023-05-24T06:49:39.150Z,20.28
2023-05-24T06:52:41.939Z,20.41
2023-05-24T06:55:44.357Z,20.29
2023-05-24T06:58:46.932Z,20.46
2023-05-24T07:01:51.794Z,20.57
2023-05-24T07:04:54.678Z,20.60
2023-05-24T07:07:57.209Z,20.74
2023-05-24T07:10:59.744Z,20.60
2023-05-24T07:14:02.280Z,20.57
2023-05-24T07:17:04.901Z,20.54
2023-05-24T07:20:10.655Z,20.58
2023-05-24T07:23:13.093Z,20.68
2023-05-24T07:26:16.018Z,20.82
2023-05-24T07:29:18.471Z,20.78
2023-05-24T07:32:24.106Z,20.67
2023-05-24T07:35:28.720Z,20.75
2023-05-24T07:38:31.307Z,20.76
2023-05-24T07:41:33.669Z,20.76
2023-05-24T07:44:36.240Z,20.86
2023-05-24T07:47:38.735Z,21.00
2023-05-24T07:50:41.276Z,20.93
2023-05-24T07:53:43.857Z,21.03
2023-05-24T07:56:47.309Z,21.12
2023-05-24T07:59:49.854Z,21.05
2023-05-24T08:02:52.451Z,21.27
2023-05-24T08:05:54.958Z,21.30
2023-05-24T08:08:57.321Z,21.23
2023-05-24T08:11:59.700Z,21.18
2023-05-24T08:15:02.162Z,21.20
2023-05-24T08:18:05.516Z,21.35
2023-05-24T08:21:09.039Z,21.40
2023-05-24T08:24:11.873Z,21.51
2023-05-24T08:27:14.873Z,21.65
2023-05-24T08:30:17.654Z,21.61
2023-05-24T08:33:20.079Z,21.57
2023-05-24T08:36:22.895Z,21.68
2023-05-24T08:39:25.246Z,21.67
2023-05-24T08:42:28.050Z,21.69
2023-05-24T08:45:31.580Z,21.88
2023-05-24T08:48:35.189Z,21.88
2023-05-24T08:51:38.721Z,21.82
2023-05-24T08:54:41.421Z,22.19
2023-05-24T08:57:44.482Z,22.26
2023-05-24T09:00:46.901Z,22.40
2023-05-24T09:03:49.451Z,22.33
2023-05-24T09:06:52.283Z,22.52
2023-05-24T09:09:58.872Z,22.78
2023-05-24T09:13:03.044Z,22.72
2023-05-24T09:16:06.373Z,22.67
2023-05-24T09:19:08.831Z,22.73
2023-05-24T09:22:15.014Z,22.80
2023-05-24T09:25:17.695Z,22.98
2023-05-24T09:28:21.898Z,23.09
2023-05-24T09:31:34.680Z,23.20
2023-05-24T09:34:43.808Z,23.40
2023-05-24T09:37:47.193Z,23.53
2023-05-24T09:41:07.288Z,23.45
2023-05-24T09:44:09.708Z,23.49
2023-05-24T09:47:12.821Z,24.22
2023-05-24T09:50:17.507Z,24.19
2023-05-24T09:53:20.224Z,24.24
2023-05-24T09:56:23.782Z,24.29
2023-05-24T09:59:26.182Z,24.35
2023-05-24T10:02:33.311Z,24.18
2023-05-24T10:05:47.074Z,24.16
2023-05-24T10:08:49.553Z,24.23
2023-05-24T10:11:51.933Z,24.49
2023-05-24T10:14:57.572Z,24.53
2023-05-24T10:18:01.962Z,24.47
2023-05-24T10:21:08.566Z,24.53
2023-05-24T10:24:12.557Z,24.46
2023-05-24T10:27:16.651Z,24.47
2023-05-24T10:30:39.376Z,24.61
2023-05-24T10:33:43.616Z,24.76
2023-05-24T10:36:46.102Z,24.74
2023-05-24T10:39:48.503Z,24.80
2023-05-24T10:42:51.889Z,25.13
2023-05-24T10:45:54.405Z,25.33
2023-05-24T10:49:00.801Z,25.77
2023-05-24T10:52:08.227Z,26.18
2023-05-24T10:55:11.744Z,26.44
2023-05-24T10:58:14.238Z,26.60
2023-05-24T11:01:32.798Z,26.78
2023-05-24T11:04:40.243Z,26.94
2023-05-24T11:07:43.210Z,26.90
2023-05-24T11:10:46.730Z,26.88
2023-05-24T11:13:49.375Z,27.07
2023-05-24T11:16:52.057Z,26.82
2023-05-24T11:19:55.136Z,26.85
2023-05-24T11:22:57.583Z,26.77
2023-05-24T11:26:00.030Z,26.77
2023-05-24T11:29:04.966Z,26.88
2023-05-24T11:32:08.158Z,26.85
2023-05-24T11:35:12.698Z,27.04
2023-05-24T11:38:15.839Z,27.34
2023-05-24T11:41:18.222Z,27.79
2023-05-24T11:44:20.685Z,27.71
2023-05-24T11:47:23.628Z,28.13
2023-05-24T11:50:45.862Z,28.57
2023-05-24T11:53:48.743Z,28.80
2023-05-24T11:56:52.621Z,28.83
2023-05-24T11:59:55.473Z,28.98
2023-05-24T12:03:01.782Z,29.07
2023-05-24T12:06:04.348Z,29.23
2023-05-24T12:09:13.905Z,29.17
2023-05-24T12:12:16.270Z,28.56
2023-05-24T12:15:18.688Z,28.17
2023-05-24T12:18:26.026Z,28.39
2023-05-24T12:21:31.787Z,28.46
2023-05-24T12:24:34.272Z,28.33
2023-05-24T12:27:36.653Z,28.25
2023-05-24T12:30:43.662Z,28.68
2023-05-24T12:33:46.514Z,29.19
2023-05-24T12:36:48.988Z,29.56
2023-05-24T12:39:53.075Z,29.44
2023-05-24T12:42:57.951Z,29.36
2023-05-24T12:46:00.348Z,29.31
2023-05-24T12:49:05.040Z,29.70
2023-05-24T12:52:07.637Z,29.71
2023-05-24T12:55:10.019Z,29.53
2023-05-24T12:58:16.389Z,29.79
2023-05-24T13:01:19.188Z,29.88
2023-05-24T13:04:23.231Z,29.75
2023-05-24T13:07:25.762Z,29.87
2023-05-24T13:10:28.508Z,29.56
2023-05-24T13:13:32.640Z,29.41
2023-05-24T13:16:35.718Z,29.47
2023-05-24T13:19:38.182Z,29.70
2023-05-24T13:22:40.620Z,29.89
2023-05-24T13:25:43.092Z,30.05
2023-05-24T13:29:07.743Z,29.96
2023-05-24T13:32:07.887Z,29.95
2023-05-24T13:35:10.324Z,29.81
2023-05-24T13:38:13.051Z,29.93
2023-05-24T13:41:15.566Z,29.97
2023-05-24T13:44:18.134Z,29.93
2023-05-24T13:47:31.224Z,30.15
2023-05-24T13:50:38.238Z,30.39
2023-05-24T13:53:41.262Z,29.99
2023-05-24T13:56:45.030Z,30.10
2023-05-24T13:59:47.742Z,29.43
2023-05-24T14:02:50.290Z,29.59
2023-05-24T14:05:52.765Z,29.58
2023-05-24T14:08:55.188Z,29.63
2023-05-24T14:11:57.942Z,29.64
2023-05-24T14:15:00.603Z,29.89
2023-05-24T14:18:07.822Z,29.87
2023-05-24T14:21:10.838Z,29.30
2023-05-24T14:24:13.276Z,29.14
2023-05-24T14:27:15.902Z,28.77
2023-05-24T14:30:18.297Z,28.50
2023-05-24T14:33:20.812Z,28.23
2023-05-24T14:36:23.181Z,28.24
2023-05-24T14:39:25.696Z,28.13
2023-05-24T14:42:28.071Z,27.96
2023-05-24T14:45:30.420Z,27.85
2023-05-24T14:48:32.793Z,27.82
2023-05-24T14:51:35.554Z,27.56
2023-05-24T14:54:40.724Z,27.42
2023-05-24T14:57:44.598Z,27.34
2023-05-24T15:00:47.106Z,27.69
2023-05-24T15:03:49.704Z,27.79
2023-05-24T15:06:52.267Z,27.93
2023-05-24T15:09:54.858Z,27.97
2023-05-24T15:12:57.272Z,27.67
2023-05-24T15:16:00.665Z,27.40
2023-05-24T15:19:03.087Z,27.14
2023-05-24T15:22:05.986Z,27.07
2023-05-24T15:25:08.866Z,27.16
2023-05-24T15:28:12.929Z,27.29
2023-05-24T15:31:15.682Z,27.14
2023-05-24T15:34:18.190Z,27.01
2023-05-24T15:37:22.507Z,26.83
2023-05-24T15:40:24.971Z,26.77
2023-05-24T15:43:27.502Z,26.43
2023-05-24T15:46:30.105Z,26.33
2023-05-24T15:49:32.516Z,26.33
2023-05-24T15:52:35.311Z,26.49
2023-05-24T15:55:39.083Z,26.68
2023-05-24T15:58:41.481Z,26.85
2023-05-24T16:01:43.958Z,26.83
2023-05-24T16:04:46.363Z,26.70
2023-05-24T16:07:48.776Z,26.79
2023-05-24T16:10:51.603Z,26.89
2023-05-24T16:13:54.381Z,26.82
2023-05-24T16:16:58.829Z,26.63
2023-05-24T16:20:01.793Z,26.50
2023-05-24T16:23:04.496Z,26.32
2023-05-24T16:26:06.877Z,26.32
2023-05-24T16:29:10.634Z,26.20
2023-05-24T16:32:14.248Z,26.18
2023-05-24T16:35:16.768Z,26.30
2023-05-24T16:38:19.175Z,26.19
2023-05-24T16:41:21.610Z,25.93
2023-05-24T16:44:24.051Z,26.01
2023-05-24T16:47:29.448Z,25.85
2023-05-24T16:50:32.145Z,25.86
2023-05-24T16:53:34.561Z,25.79
2023-05-24T16:56:37.682Z,25.65
2023-05-24T16:59:42.310Z,25.61
2023-05-24T17:02:44.897Z,25.54
2023-05-24T17:05:47.458Z,25.42
2023-05-24T17:08:49.872Z,25.40
2023-05-24T17:11:52.227Z,25.35
2023-05-24T17:14:55.287Z,25.21
2023-05-24T17:17:57.835Z,25.07
2023-05-24T17:21:01.495Z,25.02
2023-05-24T17:24:04.060Z,25.03
2023-05-24T17:27:06.563Z,24.95
2023-05-24T17:30:09.679Z,24.85
2023-05-24T17:33:12.147Z,24.73
2023-05-24T17:36:14.558Z,24.50
2023-05-24T17:39:17.694Z,24.48
2023-05-24T17:42:20.053Z,24.42
2023-05-24T17:45:22.436Z,24.39
2023-05-24T17:48:24.808Z,24.44
2023-05-24T17:51:27.249Z,24.28
2023-05-24T17:54:29.810Z,24.16
2023-05-24T17:57:32.195Z,24.09
2023-05-24T18:00:34.606Z,24.10
2023-05-24T18:03:37.843Z,23.98
2023-05-24T18:06:40.419Z,23.94
2023-05-24T18:09:42.801Z,23.74
2023-05-24T18:12:45.203Z,23.73
2023-05-24T18:15:48.151Z,23.69
2023-05-24T18:18:50.632Z,23.61
2023-05-24T18:21:53.407Z,23.50
2023-05-24T18:24:55.779Z,23.38
2023-05-24T18:27:59.045Z,23.29
2023-05-24T18:31:01.543Z,23.32
2023-05-24T18:34:04.067Z,23.18
2023-05-24T18:37:06.457Z,23.01
2023-05-24T18:40:09.504Z,23.00
2023-05-24T18:43:11.894Z,22.93
2023-05-24T18:46:15.489Z,22.92
2023-05-24T18:49:18.032Z,22.79
2023-05-24T18:52:20.417Z,22.63
2023-05-24T18:55:22.805Z,22.63
2023-05-24T18:58:25.159Z,22.66
2023-05-24T19:01:28.378Z,22.33
2023-05-24T19:04:31.008Z,22.31
2023-05-24T19:07:34.321Z,22.23
2023-05-24T19:10:36.689Z,22.12
2023-05-24T19:13:41.721Z,22.04
2023-05-24T19:16:44.066Z,21.69
2023-05-24T19:19:46.719Z,21.79
2023-05-24T19:22:49.175Z,21.83
2023-05-24T19:25:51.571Z,21.77
2023-05-24T19:28:54.262Z,21.57
2023-05-24T19:31:56.732Z,21.65
2023-05-24T19:34:59.534Z,21.28
2023-05-24T19:38:01.909Z,21.31
2023-05-24T19:41:04.442Z,21.11
2023-05-24T19:44:06.820Z,21.10
2023-05-24T19:47:09.241Z,21.27
2023-05-24T19:50:11.639Z,21.19
2023-05-24T19:53:14.984Z,21.12
2023-05-24T19:56:17.333Z,21.22
2023-05-24T19:59:19.739Z,21.16
2023-05-24T20:02:22.159Z,21.16
2023-05-24T20:05:24.690Z,21.03
2023-05-24T20:08:27.105Z,20.91
2023-05-24T20:11:29.506Z,20.49
2023-05-24T20:14:31.978Z,20.68
2023-05-24T20:17:34.414Z,20.58
2023-05-24T20:20:36.966Z,20.63
2023-05-24T20:23:39.441Z,20.55
2023-05-24T20:26:42.011Z,20.45
2023-05-24T20:29:44.405Z,20.37
2023-05-24T20:32:46.816Z,20.38
2023-05-24T20:35:49.943Z,20.43
2023-05-24T20:38:52.278Z,20.32
2023-05-24T20:41:55.786Z,20.27
2023-05-24T20:44:59.118Z,20.23
2023-05-24T20:48:01.510Z,20.05
2023-05-24T20:51:04.010Z,20.04
2023-05-24T20:54:06.476Z,19.95
2023-05-24T20:57:08.826Z,19.94
2023-05-24T21:00:11.564Z,19.89
2023-05-24T21:03:14.093Z,19.82
2023-05-24T21:06:16.635Z,19.69
2023-05-24T21:09:19.026Z,19.73
2023-05-24T21:12:21.672Z,19.75
2023-05-24T21:15:24.058Z,19.69
2023-05-24T21:18:26.418Z,19.70
2023-05-24T21:21:28.770Z,19.66
2023-05-24T21:24:31.186Z,19.75
2023-05-24T21:27:33.865Z,19.71
2023-05-24T21:30:36.259Z,19.71
2023-05-24T21:33:42.706Z,19.80
2023-05-24T21:36:45.093Z,19.53
2023-05-24T21:39:48.080Z,19.66
2023-05-24T21:42:50.442Z,19.47
2023-05-24T21:45:52.860Z,19.34
2023-05-24T21:48:57.121Z,19.34
2023-05-24T21:51:59.577Z,19.28
2023-05-24T21:55:02.048Z,19.21
2023-05-24T21:58:04.484Z,19.17
2023-05-24T22:01:08.651Z,19.11
2023-05-24T22:04:11.289Z,19.19
2023-05-24T22:07:13.986Z,19.07
2023-05-24T22:10:16.658Z,19.00
2023-05-24T22:13:19.058Z,18.95
2023-05-24T22:16:21.488Z,18.83
2023-05-24T22:19:38.914Z,18.84
2023-05-24T22:22:53.840Z,18.89
2023-05-24T22:25:56.266Z,18.77
2023-05-24T22:29:00.971Z,18.96
2023-05-24T22:32:03.557Z,18.83
2023-05-24T22:35:06.520Z,18.74
2023-05-24T22:38:08.926Z,18.75
2023-05-24T22:41:11.375Z,18.84
2023-05-24T22:44:13.784Z,18.79
2023-05-24T22:47:17.073Z,18.72
2023-05-24T22:50:19.486Z,18.87
2023-05-24T22:53:22.955Z,18.87
2023-05-24T22:56:25.476Z,18.78
2023-05-24T22:59:27.909Z,18.87
2023-05-24T23:02:30.907Z,18.77
2023-05-24T23:05:34.722Z,18.61
2023-05-24T23:08:37.569Z,18.69
2023-05-24T23:11:39.976Z,18.79
2023-05-24T23:14:46.438Z,18.70
2023-05-24T23:17:52.283Z,18.72
2023-05-24T23:20:54.906Z,18.51
2023-05-24T23:23:57.302Z,18.54
2023-05-24T23:26:59.730Z,18.70
2023-05-24T23:30:02.099Z,18.61
2023-05-24T23:33:04.580Z,18.55
2023-05-24T23:36:07.357Z,18.50
2023-05-24T23:39:12.688Z,18.52
2023-05-24T23:42:15.218Z,18.28
2023-05-24T23:45:17.621Z,18.26
2023-05-24T23:48:23.232Z,18.35
2023-05-24T23:51:25.741Z,18.23
2023-05-24T23:54:28.201Z,18.22
2023-05-24T23:57:30.551Z,17.90
